sensor_id;sensor_type;location;lat;lon;timestamp;temperature;humidity
9768;DHT22;4923;52.520;13.494;2022-10-04T00:00:29;13.20;1.00
9768;DHT22;4923;52.520;13.494;2022-10-04T00:03:27;13.20;1.00
9768;DHT22;4923;52.520;13.494;2022-10-04T00:06:23;13.20;1.00
9768;DHT22;4923;52.520;13.494;2022-10-04T00:09:15;13.20;1.00
9768;DHT22;4923;52.520;13.494;2022-10-04T00:12:03;13.20;1.00
9768;DHT22;4923;52.520;13.494;2022-10-04T00:14:54;13.20;1.00
9768;DHT22;4923;52.520;13.494;2022-10-04T00:17:42;13.20;1.00
9768;DHT22;4923;52.520;13.494;2022-10-04T00:20:55;13.20;1.00
9768;DHT22;4923;52.520;13.494;2022-10-04T00:23:45;13.10;1.00
9768;DHT22;4923;52.520;13.494;2022-10-04T00:30:19;13.10;1.00
9768;DHT22;4923;52.520;13.494;2022-10-04T00:33:08;13.10;1.00
9768;DHT22;4923;52.520;13.494;2022-10-04T00:35:55;13.10;1.00
9768;DHT22;4923;52.520;13.494;2022-10-04T00:38:42;13.10;1.00
9768;DHT22;4923;52.520;13.494;2022-10-04T00:41:36;13.10;1.00
9768;DHT22;4923;52.520;13.494;2022-10-04T00:44:29;13.10;1.00
9768;DHT22;4923;52.520;13.494;2022-10-04T00:47:26;13.00;1.00
9768;DHT22;4923;52.520;13.494;2022-10-04T00:50:20;13.00;1.00
9768;DHT22;4923;52.520;13.494;2022-10-04T00:53:17;13.00;1.00
9768;DHT22;4923;52.520;13.494;2022-10-04T00:56:08;13.00;1.00
9768;DHT22;4923;52.520;13.494;2022-10-04T00:59:14;13.00;1.00
9768;DHT22;4923;52.520;13.494;2022-10-04T01:02:11;13.00;1.00
9768;DHT22;4923;52.520;13.494;2022-10-04T01:05:03;13.00;1.00
9768;DHT22;4923;52.520;13.494;2022-10-04T01:07:55;13.00;1.00
9768;DHT22;4923;52.520;13.494;2022-10-04T01:10:50;13.00;1.00
9768;DHT22;4923;52.520;13.494;2022-10-04T01:13:43;13.00;1.00
9768;DHT22;4923;52.520;13.494;2022-10-04T01:16:33;13.00;1.00
9768;DHT22;4923;52.520;13.494;2022-10-04T01:19:29;13.00;1.00
9768;DHT22;4923;52.520;13.494;2022-10-04T01:22:35;12.90;1.00
9768;DHT22;4923;52.520;13.494;2022-10-04T01:25:41;12.90;1.00
9768;DHT22;4923;52.520;13.494;2022-10-04T01:28:29;12.90;1.00
9768;DHT22;4923;52.520;13.494;2022-10-04T01:31:16;12.90;1.00
9768;DHT22;4923;52.520;13.494;2022-10-04T01:34:04;12.90;1.00
9768;DHT22;4923;52.520;13.494;2022-10-04T01:36:53;12.90;1.00
9768;DHT22;4923;52.520;13.494;2022-10-04T01:39:42;12.80;1.00
9768;DHT22;4923;52.520;13.494;2022-10-04T01:42:34;12.80;1.00
9768;DHT22;4923;52.520;13.494;2022-10-04T01:45:29;12.80;1.00
9768;DHT22;4923;52.520;13.494;2022-10-04T01:48:20;12.80;1.00
9768;DHT22;4923;52.520;13.494;2022-10-04T01:51:14;12.70;1.00
9768;DHT22;4923;52.520;13.494;2022-10-04T01:54:07;12.70;1.00
9768;DHT22;4923;52.520;13.494;2022-10-04T01:57:00;12.60;1.00
9768;DHT22;4923;52.520;13.494;2022-10-04T01:59:51;12.60;1.00
9768;DHT22;4923;52.520;13.494;2022-10-04T02:02:42;12.60;1.00
9768;DHT22;4923;52.520;13.494;2022-10-04T02:05:35;12.60;1.00
9768;DHT22;4923;52.520;13.494;2022-10-04T02:08:28;12.50;1.00
9768;DHT22;4923;52.520;13.494;2022-10-04T02:11:19;12.50;1.00
9768;DHT22;4923;52.520;13.494;2022-10-04T02:14:12;12.50;1.00
9768;DHT22;4923;52.520;13.494;2022-10-04T02:17:04;12.40;1.00
9768;DHT22;4923;52.520;13.494;2022-10-04T02:19:56;12.50;1.00
9768;DHT22;4923;52.520;13.494;2022-10-04T02:22:45;12.40;1.00
9768;DHT22;4923;52.520;13.494;2022-10-04T02:25:36;12.40;1.00
9768;DHT22;4923;52.520;13.494;2022-10-04T02:28:23;12.40;1.00
9768;DHT22;4923;52.520;13.494;2022-10-04T02:31:19;12.30;1.00
9768;DHT22;4923;52.520;13.494;2022-10-04T02:34:25;12.40;1.00
9768;DHT22;4923;52.520;13.494;2022-10-04T02:37:16;12.30;1.00
9768;DHT22;4923;52.520;13.494;2022-10-04T02:40:08;12.20;1.00
9768;DHT22;4923;52.520;13.494;2022-10-04T02:42:59;12.10;1.00
9768;DHT22;4923;52.520;13.494;2022-10-04T02:45:49;12.10;1.00
9768;DHT22;4923;52.520;13.494;2022-10-04T02:48:46;12.00;1.00
9768;DHT22;4923;52.520;13.494;2022-10-04T02:51:38;12.10;1.00
9768;DHT22;4923;52.520;13.494;2022-10-04T02:54:28;12.10;1.00
9768;DHT22;4923;52.520;13.494;2022-10-04T02:57:18;12.10;1.00
9768;DHT22;4923;52.520;13.494;2022-10-04T03:00:16;12.20;1.00
9768;DHT22;4923;52.520;13.494;2022-10-04T03:03:14;12.20;1.00
9768;DHT22;4923;52.520;13.494;2022-10-04T03:06:06;12.20;1.00
9768;DHT22;4923;52.520;13.494;2022-10-04T03:08:56;12.30;1.00
9768;DHT22;4923;52.520;13.494;2022-10-04T03:11:44;12.20;1.00
9768;DHT22;4923;52.520;13.494;2022-10-04T03:14:32;12.20;1.00
9768;DHT22;4923;52.520;13.494;2022-10-04T03:17:20;12.30;1.00
9768;DHT22;4923;52.520;13.494;2022-10-04T03:20:09;12.20;1.00
9768;DHT22;4923;52.520;13.494;2022-10-04T03:23:03;12.10;1.00
9768;DHT22;4923;52.520;13.494;2022-10-04T03:25:54;12.10;1.00
9768;DHT22;4923;52.520;13.494;2022-10-04T03:28:43;12.00;1.00
9768;DHT22;4923;52.520;13.494;2022-10-04T03:31:32;12.00;1.00
9768;DHT22;4923;52.520;13.494;2022-10-04T03:34:22;12.00;1.00
9768;DHT22;4923;52.520;13.494;2022-10-04T03:37:13;11.90;1.00
9768;DHT22;4923;52.520;13.494;2022-10-04T03:40:06;11.90;1.00
9768;DHT22;4923;52.520;13.494;2022-10-04T03:42:54;11.80;1.00
9768;DHT22;4923;52.520;13.494;2022-10-04T03:45:42;11.80;1.00
9768;DHT22;4923;52.520;13.494;2022-10-04T03:48:34;11.80;1.00
9768;DHT22;4923;52.520;13.494;2022-10-04T03:51:23;11.90;1.00
9768;DHT22;4923;52.520;13.494;2022-10-04T03:54:15;11.90;1.00
9768;DHT22;4923;52.520;13.494;2022-10-04T03:57:05;11.90;1.00
9768;DHT22;4923;52.520;13.494;2022-10-04T03:59:52;11.80;1.00
9768;DHT22;4923;52.520;13.494;2022-10-04T04:02:43;11.90;1.00
9768;DHT22;4923;52.520;13.494;2022-10-04T04:05:36;11.80;1.00
9768;DHT22;4923;52.520;13.494;2022-10-04T04:08:27;11.80;1.00
9768;DHT22;4923;52.520;13.494;2022-10-04T04:11:19;11.80;1.00
9768;DHT22;4923;52.520;13.494;2022-10-04T04:14:13;11.80;1.00
9768;DHT22;4923;52.520;13.494;2022-10-04T04:17:19;11.80;1.00
9768;DHT22;4923;52.520;13.494;2022-10-04T04:20:19;11.80;1.00
9768;DHT22;4923;52.520;13.494;2022-10-04T04:23:16;11.70;1.00
9768;DHT22;4923;52.520;13.494;2022-10-04T04:26:15;11.60;1.00
9768;DHT22;4923;52.520;13.494;2022-10-04T04:29:10;11.50;1.00
9768;DHT22;4923;52.520;13.494;2022-10-04T04:32:03;11.40;1.00
9768;DHT22;4923;52.520;13.494;2022-10-04T04:34:57;11.40;1.00
9768;DHT22;4923;52.520;13.494;2022-10-04T04:38:01;11.30;1.00
9768;DHT22;4923;52.520;13.494;2022-10-04T04:40:50;11.30;1.00
9768;DHT22;4923;52.520;13.494;2022-10-04T04:43:42;11.20;1.00
9768;DHT22;4923;52.520;13.494;2022-10-04T04:46:31;11.20;1.00
9768;DHT22;4923;52.520;13.494;2022-10-04T04:49:18;11.10;1.00
9768;DHT22;4923;52.520;13.494;2022-10-04T04:52:14;11.10;1.00
9768;DHT22;4923;52.520;13.494;2022-10-04T04:55:03;11.10;1.00
9768;DHT22;4923;52.520;13.494;2022-10-04T04:57:54;11.10;1.00
9768;DHT22;4923;52.520;13.494;2022-10-04T05:00:44;11.10;1.00
9768;DHT22;4923;52.520;13.494;2022-10-04T05:03:36;11.10;1.00
9768;DHT22;4923;52.520;13.494;2022-10-04T05:06:28;11.10;1.00
9768;DHT22;4923;52.520;13.494;2022-10-04T05:09:23;11.10;1.00
9768;DHT22;4923;52.520;13.494;2022-10-04T05:12:15;11.00;1.00
9768;DHT22;4923;52.520;13.494;2022-10-04T05:15:07;11.00;1.00
9768;DHT22;4923;52.520;13.494;2022-10-04T05:17:55;11.00;1.00
9768;DHT22;4923;52.520;13.494;2022-10-04T05:20:47;10.90;1.00
9768;DHT22;4923;52.520;13.494;2022-10-04T05:23:35;11.00;1.00
9768;DHT22;4923;52.520;13.494;2022-10-04T05:26:25;11.00;1.00
9768;DHT22;4923;52.520;13.494;2022-10-04T05:29:17;11.00;4.40
9768;DHT22;4923;52.520;13.494;2022-10-04T05:32:14;11.00;8.10
9768;DHT22;4923;52.520;13.494;2022-10-04T05:35:14;11.10;9.60
9768;DHT22;4923;52.520;13.494;2022-10-04T05:38:06;11.10;10.10
9768;DHT22;4923;52.520;13.494;2022-10-04T05:41:02;11.10;9.60
9768;DHT22;4923;52.520;13.494;2022-10-04T05:43:51;11.20;9.10
9768;DHT22;4923;52.520;13.494;2022-10-04T05:46:39;11.20;7.30
9768;DHT22;4923;52.520;13.494;2022-10-04T05:49:29;11.30;2.20
9768;DHT22;4923;52.520;13.494;2022-10-04T05:52:28;11.40;1.00
9768;DHT22;4923;52.520;13.494;2022-10-04T05:55:33;11.50;1.00
9768;DHT22;4923;52.520;13.494;2022-10-04T05:58:35;11.60;1.00
9768;DHT22;4923;52.520;13.494;2022-10-04T06:01:34;11.70;1.00
9768;DHT22;4923;52.520;13.494;2022-10-04T06:04:42;11.80;1.00
9768;DHT22;4923;52.520;13.494;2022-10-04T06:07:36;11.90;1.00
9768;DHT22;4923;52.520;13.494;2022-10-04T06:10:48;12.00;1.00
9768;DHT22;4923;52.520;13.494;2022-10-04T06:14:01;12.20;1.00
9768;DHT22;4923;52.520;13.494;2022-10-04T06:17:03;12.30;1.00
9768;DHT22;4923;52.520;13.494;2022-10-04T06:20:06;12.50;1.00
9768;DHT22;4923;52.520;13.494;2022-10-04T06:22:59;12.60;1.00
9768;DHT22;4923;52.520;13.494;2022-10-04T06:25:56;12.80;1.00
9768;DHT22;4923;52.520;13.494;2022-10-04T06:28:46;12.90;1.00
9768;DHT22;4923;52.520;13.494;2022-10-04T06:31:56;13.00;1.00
9768;DHT22;4923;52.520;13.494;2022-10-04T06:38:19;13.20;1.00
9768;DHT22;4923;52.520;13.494;2022-10-04T06:41:24;13.40;1.00
9768;DHT22;4923;52.520;13.494;2022-10-04T06:47:43;13.40;1.00
9768;DHT22;4923;52.520;13.494;2022-10-04T06:50:47;13.60;1.00
9768;DHT22;4923;52.520;13.494;2022-10-04T06:53:43;13.60;1.00
9768;DHT22;4923;52.520;13.494;2022-10-04T06:56:46;13.50;1.00
9768;DHT22;4923;52.520;13.494;2022-10-04T06:59:47;13.50;1.00
9768;DHT22;4923;52.520;13.494;2022-10-04T07:02:43;13.40;1.00
9768;DHT22;4923;52.520;13.494;2022-10-04T07:05:38;13.50;1.00
9768;DHT22;4923;52.520;13.494;2022-10-04T07:08:33;13.50;1.00
9768;DHT22;4923;52.520;13.494;2022-10-04T07:11:26;13.40;1.00
9768;DHT22;4923;52.520;13.494;2022-10-04T07:14:19;13.40;1.00
9768;DHT22;4923;52.520;13.494;2022-10-04T07:17:11;13.50;1.00
9768;DHT22;4923;52.520;13.494;2022-10-04T07:20:00;13.60;1.00
9768;DHT22;4923;52.520;13.494;2022-10-04T07:22:53;13.50;1.00
9768;DHT22;4923;52.520;13.494;2022-10-04T07:25:44;13.30;1.00
9768;DHT22;4923;52.520;13.494;2022-10-04T07:28:38;13.30;1.00
9768;DHT22;4923;52.520;13.494;2022-10-04T07:31:46;13.40;1.00
9768;DHT22;4923;52.520;13.494;2022-10-04T07:34:37;13.50;1.00
9768;DHT22;4923;52.520;13.494;2022-10-04T07:37:31;13.60;1.00
9768;DHT22;4923;52.520;13.494;2022-10-04T07:40:24;13.70;1.00
9768;DHT22;4923;52.520;13.494;2022-10-04T07:43:22;13.80;1.00
9768;DHT22;4923;52.520;13.494;2022-10-04T07:46:16;14.00;1.00
9768;DHT22;4923;52.520;13.494;2022-10-04T07:49:12;13.70;1.00
9768;DHT22;4923;52.520;13.494;2022-10-04T07:52:26;13.60;1.00
9768;DHT22;4923;52.520;13.494;2022-10-04T07:55:22;13.50;1.00
9768;DHT22;4923;52.520;13.494;2022-10-04T07:58:25;13.40;1.00
9768;DHT22;4923;52.520;13.494;2022-10-04T08:01:21;13.30;1.00
9768;DHT22;4923;52.520;13.494;2022-10-04T08:04:23;13.40;1.00
9768;DHT22;4923;52.520;13.494;2022-10-04T08:07:18;13.50;1.00
9768;DHT22;4923;52.520;13.494;2022-10-04T08:10:13;13.60;1.00
9768;DHT22;4923;52.520;13.494;2022-10-04T08:13:10;13.60;1.00
9768;DHT22;4923;52.520;13.494;2022-10-04T08:16:09;13.80;1.00
9768;DHT22;4923;52.520;13.494;2022-10-04T08:19:11;13.70;1.00
9768;DHT22;4923;52.520;13.494;2022-10-04T08:22:09;13.70;1.00
9768;DHT22;4923;52.520;13.494;2022-10-04T08:25:04;13.80;1.00
9768;DHT22;4923;52.520;13.494;2022-10-04T08:28:02;13.80;1.00
9768;DHT22;4923;52.520;13.494;2022-10-04T08:31:17;13.90;1.00
9768;DHT22;4923;52.520;13.494;2022-10-04T08:34:23;14.00;1.00
9768;DHT22;4923;52.520;13.494;2022-10-04T08:37:25;14.20;1.00
9768;DHT22;4923;52.520;13.494;2022-10-04T08:40:44;14.30;1.00
9768;DHT22;4923;52.520;13.494;2022-10-04T08:47:21;14.40;1.00
9768;DHT22;4923;52.520;13.494;2022-10-04T08:50:35;14.50;1.00
9768;DHT22;4923;52.520;13.494;2022-10-04T08:56:37;14.60;1.00
9768;DHT22;4923;52.520;13.494;2022-10-04T09:00:02;14.80;1.00
9768;DHT22;4923;52.520;13.494;2022-10-04T09:03:25;14.90;1.00
9768;DHT22;4923;52.520;13.494;2022-10-04T09:06:31;14.90;1.00
9768;DHT22;4923;52.520;13.494;2022-10-04T09:09:47;14.90;1.00
9768;DHT22;4923;52.520;13.494;2022-10-04T09:12:51;15.10;1.00
9768;DHT22;4923;52.520;13.494;2022-10-04T09:15:49;15.60;1.00
9768;DHT22;4923;52.520;13.494;2022-10-04T09:18:48;16.10;1.00
9768;DHT22;4923;52.520;13.494;2022-10-04T09:25:08;16.60;1.00
9768;DHT22;4923;52.520;13.494;2022-10-04T09:31:43;16.20;1.00
9768;DHT22;4923;52.520;13.494;2022-10-04T09:34:49;15.90;1.00
9768;DHT22;4923;52.520;13.494;2022-10-04T09:38:01;16.20;1.00
9768;DHT22;4923;52.520;13.494;2022-10-04T09:41:09;16.60;1.00
9768;DHT22;4923;52.520;13.494;2022-10-04T09:47:30;16.90;1.00
9768;DHT22;4923;52.520;13.494;2022-10-04T09:50:46;16.50;1.00
9768;DHT22;4923;52.520;13.494;2022-10-04T09:54:03;16.40;1.00
9768;DHT22;4923;52.520;13.494;2022-10-04T10:00:18;17.20;1.00
9768;DHT22;4923;52.520;13.494;2022-10-04T10:03:31;17.40;1.00
9768;DHT22;4923;52.520;13.494;2022-10-04T10:06:40;17.10;1.00
9768;DHT22;4923;52.520;13.494;2022-10-04T10:09:37;17.50;1.00
9768;DHT22;4923;52.520;13.494;2022-10-04T10:13:04;17.80;1.00
9768;DHT22;4923;52.520;13.494;2022-10-04T10:23:05;18.00;1.00
9768;DHT22;4923;52.520;13.494;2022-10-04T10:26:17;17.50;1.00
9768;DHT22;4923;52.520;13.494;2022-10-04T10:33:17;17.60;1.00
9768;DHT22;4923;52.520;13.494;2022-10-04T10:36:17;17.30;1.00
9768;DHT22;4923;52.520;13.494;2022-10-04T10:46:26;17.50;1.00
9768;DHT22;4923;52.520;13.494;2022-10-04T10:49:41;17.10;1.00
9768;DHT22;4923;52.520;13.494;2022-10-04T10:52:56;17.10;1.00
9768;DHT22;4923;52.520;13.494;2022-10-04T10:56:20;17.60;1.00
9768;DHT22;4923;52.520;13.494;2022-10-04T10:59:38;18.00;1.00
9768;DHT22;4923;52.520;13.494;2022-10-04T11:06:14;17.80;1.00
9768;DHT22;4923;52.520;13.494;2022-10-04T11:09:28;17.70;1.00
9768;DHT22;4923;52.520;13.494;2022-10-04T11:12:40;18.10;1.00
9768;DHT22;4923;52.520;13.494;2022-10-04T11:15:37;18.10;1.00
9768;DHT22;4923;52.520;13.494;2022-10-04T11:19:14;18.10;1.00
9768;DHT22;4923;52.520;13.494;2022-10-04T11:25:43;18.60;1.00
9768;DHT22;4923;52.520;13.494;2022-10-04T11:28:42;19.30;1.00
9768;DHT22;4923;52.520;13.494;2022-10-04T11:32:16;19.40;1.00
9768;DHT22;4923;52.520;13.494;2022-10-04T11:35:41;19.50;1.00
9768;DHT22;4923;52.520;13.494;2022-10-04T11:38:51;18.60;1.00
9768;DHT22;4923;52.520;13.494;2022-10-04T11:42:04;18.20;1.00
9768;DHT22;4923;52.520;13.494;2022-10-04T11:45:24;17.90;1.00
9768;DHT22;4923;52.520;13.494;2022-10-04T11:48:27;17.90;1.00
9768;DHT22;4923;52.520;13.494;2022-10-04T11:51:33;17.80;1.00
9768;DHT22;4923;52.520;13.494;2022-10-04T11:54:51;17.70;1.00
9768;DHT22;4923;52.520;13.494;2022-10-04T11:57:44;17.50;1.00
9768;DHT22;4923;52.520;13.494;2022-10-04T12:00:51;17.40;1.00
9768;DHT22;4923;52.520;13.494;2022-10-04T12:03:58;17.10;1.00
9768;DHT22;4923;52.520;13.494;2022-10-04T12:07:03;16.90;1.00
9768;DHT22;4923;52.520;13.494;2022-10-04T12:10:03;17.30;1.00
9768;DHT22;4923;52.520;13.494;2022-10-04T12:13:14;17.60;1.00
9768;DHT22;4923;52.520;13.494;2022-10-04T12:16:23;17.60;1.00
9768;DHT22;4923;52.520;13.494;2022-10-04T12:19:47;17.30;1.00
9768;DHT22;4923;52.520;13.494;2022-10-04T12:22:44;17.20;1.00
9768;DHT22;4923;52.520;13.494;2022-10-04T12:26:09;17.20;1.00
9768;DHT22;4923;52.520;13.494;2022-10-04T12:29:19;17.60;1.00
9768;DHT22;4923;52.520;13.494;2022-10-04T12:32:18;18.00;1.00
9768;DHT22;4923;52.520;13.494;2022-10-04T12:35:21;18.00;1.00
9768;DHT22;4923;52.520;13.494;2022-10-04T12:38:39;18.30;1.00
9768;DHT22;4923;52.520;13.494;2022-10-04T12:41:51;18.50;1.00
9768;DHT22;4923;52.520;13.494;2022-10-04T12:44:53;18.60;1.00
9768;DHT22;4923;52.520;13.494;2022-10-04T12:48:21;18.60;1.00
9768;DHT22;4923;52.520;13.494;2022-10-04T12:51:25;18.80;1.00
9768;DHT22;4923;52.520;13.494;2022-10-04T12:54:29;18.70;1.00
9768;DHT22;4923;52.520;13.494;2022-10-04T12:57:29;18.70;1.00
9768;DHT22;4923;52.520;13.494;2022-10-04T13:00:20;18.70;1.00
9768;DHT22;4923;52.520;13.494;2022-10-04T13:03:28;18.60;1.00
9768;DHT22;4923;52.520;13.494;2022-10-04T13:06:21;18.50;1.00
9768;DHT22;4923;52.520;13.494;2022-10-04T13:09:14;18.20;1.00
9768;DHT22;4923;52.520;13.494;2022-10-04T13:12:13;18.10;1.00
9768;DHT22;4923;52.520;13.494;2022-10-04T13:15:20;18.20;1.00
9768;DHT22;4923;52.520;13.494;2022-10-04T13:18:18;18.60;1.00
9768;DHT22;4923;52.520;13.494;2022-10-04T13:21:10;18.90;1.00
9768;DHT22;4923;52.520;13.494;2022-10-04T13:24:03;19.10;1.00
9768;DHT22;4923;52.520;13.494;2022-10-04T13:26:55;19.30;1.00
9768;DHT22;4923;52.520;13.494;2022-10-04T13:29:51;19.40;1.00
9768;DHT22;4923;52.520;13.494;2022-10-04T13:32:43;19.50;1.00
9768;DHT22;4923;52.520;13.494;2022-10-04T13:35:40;19.50;1.00
9768;DHT22;4923;52.520;13.494;2022-10-04T13:38:42;19.40;1.00
9768;DHT22;4923;52.520;13.494;2022-10-04T13:41:45;19.60;1.00
9768;DHT22;4923;52.520;13.494;2022-10-04T13:44:56;19.70;1.00
9768;DHT22;4923;52.520;13.494;2022-10-04T13:48:22;19.80;1.00
9768;DHT22;4923;52.520;13.494;2022-10-04T13:51:36;19.90;1.00
9768;DHT22;4923;52.520;13.494;2022-10-04T13:54:31;19.70;1.00
9768;DHT22;4923;52.520;13.494;2022-10-04T13:57:44;19.50;1.00
9768;DHT22;4923;52.520;13.494;2022-10-04T14:00:43;19.50;1.00
9768;DHT22;4923;52.520;13.494;2022-10-04T14:03:47;19.10;1.00
9768;DHT22;4923;52.520;13.494;2022-10-04T14:07:10;19.10;1.00
9768;DHT22;4923;52.520;13.494;2022-10-04T14:10:33;19.00;1.00
9768;DHT22;4923;52.520;13.494;2022-10-04T14:13:44;19.10;1.00
9768;DHT22;4923;52.520;13.494;2022-10-04T14:16:50;19.10;1.00
9768;DHT22;4923;52.520;13.494;2022-10-04T14:23:30;19.00;1.00
9768;DHT22;4923;52.520;13.494;2022-10-04T14:30:04;19.60;1.00
9768;DHT22;4923;52.520;13.494;2022-10-04T14:36:47;19.30;1.00
9768;DHT22;4923;52.520;13.494;2022-10-04T14:40:07;19.30;1.00
9768;DHT22;4923;52.520;13.494;2022-10-04T14:43:21;18.90;1.00
9768;DHT22;4923;52.520;13.494;2022-10-04T14:46:27;18.90;1.00
9768;DHT22;4923;52.520;13.494;2022-10-04T14:49:25;18.80;1.00
9768;DHT22;4923;52.520;13.494;2022-10-04T14:52:31;18.70;1.00
9768;DHT22;4923;52.520;13.494;2022-10-04T14:55:35;18.60;1.00
9768;DHT22;4923;52.520;13.494;2022-10-04T14:58:32;18.40;1.00
9768;DHT22;4923;52.520;13.494;2022-10-04T15:01:26;18.30;1.00
9768;DHT22;4923;52.520;13.494;2022-10-04T15:04:22;18.20;1.00
9768;DHT22;4923;52.520;13.494;2022-10-04T15:07:17;18.10;1.00
9768;DHT22;4923;52.520;13.494;2022-10-04T15:10:13;18.00;1.00
9768;DHT22;4923;52.520;13.494;2022-10-04T15:13:07;18.00;1.00
9768;DHT22;4923;52.520;13.494;2022-10-04T15:16:05;18.00;1.00
9768;DHT22;4923;52.520;13.494;2022-10-04T15:19:01;17.90;1.00
9768;DHT22;4923;52.520;13.494;2022-10-04T15:21:52;17.80;1.00
9768;DHT22;4923;52.520;13.494;2022-10-04T15:24:50;17.70;1.00
9768;DHT22;4923;52.520;13.494;2022-10-04T15:27:46;17.50;1.00
9768;DHT22;4923;52.520;13.494;2022-10-04T15:30:48;17.40;1.00
9768;DHT22;4923;52.520;13.494;2022-10-04T15:33:42;17.30;1.00
9768;DHT22;4923;52.520;13.494;2022-10-04T15:37:02;17.10;1.00
9768;DHT22;4923;52.520;13.494;2022-10-04T15:43:22;16.90;1.00
9768;DHT22;4923;52.520;13.494;2022-10-04T15:46:33;16.80;1.00
9768;DHT22;4923;52.520;13.494;2022-10-04T15:49:46;16.70;1.00
9768;DHT22;4923;52.520;13.494;2022-10-04T15:52:49;16.60;1.00
9768;DHT22;4923;52.520;13.494;2022-10-04T15:56:09;16.50;1.00
9768;DHT22;4923;52.520;13.494;2022-10-04T15:59:15;16.40;1.00
9768;DHT22;4923;52.520;13.494;2022-10-04T16:05:32;16.20;1.00
9768;DHT22;4923;52.520;13.494;2022-10-04T16:08:45;16.20;1.00
9768;DHT22;4923;52.520;13.494;2022-10-04T16:11:53;16.10;1.00
9768;DHT22;4923;52.520;13.494;2022-10-04T16:14:56;15.90;1.00
9768;DHT22;4923;52.520;13.494;2022-10-04T16:18:09;15.80;1.00
9768;DHT22;4923;52.520;13.494;2022-10-04T16:21:15;15.70;1.00
9768;DHT22;4923;52.520;13.494;2022-10-04T16:24:39;15.60;1.00
9768;DHT22;4923;52.520;13.494;2022-10-04T16:27:56;15.40;1.00
9768;DHT22;4923;52.520;13.494;2022-10-04T16:31:13;15.30;1.00
9768;DHT22;4923;52.520;13.494;2022-10-04T16:34:14;15.20;1.00
9768;DHT22;4923;52.520;13.494;2022-10-04T16:37:14;15.10;1.00
9768;DHT22;4923;52.520;13.494;2022-10-04T16:40:18;14.90;1.00
9768;DHT22;4923;52.520;13.494;2022-10-04T16:43:19;14.80;1.00
9768;DHT22;4923;52.520;13.494;2022-10-04T16:46:20;14.80;1.00
9768;DHT22;4923;52.520;13.494;2022-10-04T16:49:19;14.70;1.00
9768;DHT22;4923;52.520;13.494;2022-10-04T16:52:19;14.60;1.00
9768;DHT22;4923;52.520;13.494;2022-10-04T16:55:28;14.50;1.00
9768;DHT22;4923;52.520;13.494;2022-10-04T16:58:48;14.40;1.00
9768;DHT22;4923;52.520;13.494;2022-10-04T17:02:17;14.20;1.00
9768;DHT22;4923;52.520;13.494;2022-10-04T17:05:31;14.20;1.00
9768;DHT22;4923;52.520;13.494;2022-10-04T17:08:45;14.10;1.00
9768;DHT22;4923;52.520;13.494;2022-10-04T17:11:40;14.00;1.00
9768;DHT22;4923;52.520;13.494;2022-10-04T17:14:49;13.90;1.00
9768;DHT22;4923;52.520;13.494;2022-10-04T17:17:45;13.90;1.00
9768;DHT22;4923;52.520;13.494;2022-10-04T17:20:45;13.80;1.00
9768;DHT22;4923;52.520;13.494;2022-10-04T17:23:57;13.70;1.00
9768;DHT22;4923;52.520;13.494;2022-10-04T17:27:15;13.60;1.00
9768;DHT22;4923;52.520;13.494;2022-10-04T17:38:17;13.50;1.00
9768;DHT22;4923;52.520;13.494;2022-10-04T17:45:20;13.30;1.00
9768;DHT22;4923;52.520;13.494;2022-10-04T17:48:14;13.20;1.00
9768;DHT22;4923;52.520;13.494;2022-10-04T17:51:33;13.20;1.00
9768;DHT22;4923;52.520;13.494;2022-10-04T17:54:45;13.10;1.00
9768;DHT22;4923;52.520;13.494;2022-10-04T17:57:54;13.00;1.00
9768;DHT22;4923;52.520;13.494;2022-10-04T18:00:50;13.00;1.00
9768;DHT22;4923;52.520;13.494;2022-10-04T18:03:41;12.90;1.00
9768;DHT22;4923;52.520;13.494;2022-10-04T18:06:35;12.80;1.00
9768;DHT22;4923;52.520;13.494;2022-10-04T18:09:27;12.80;1.00
9768;DHT22;4923;52.520;13.494;2022-10-04T18:12:26;12.80;1.00
9768;DHT22;4923;52.520;13.494;2022-10-04T18:15:19;12.70;1.00
9768;DHT22;4923;52.520;13.494;2022-10-04T18:18:14;12.70;1.00
9768;DHT22;4923;52.520;13.494;2022-10-04T18:21:06;12.70;1.00
9768;DHT22;4923;52.520;13.494;2022-10-04T18:24:18;12.60;1.00
9768;DHT22;4923;52.520;13.494;2022-10-04T18:27:16;12.60;1.00
9768;DHT22;4923;52.520;13.494;2022-10-04T18:30:13;12.50;1.00
9768;DHT22;4923;52.520;13.494;2022-10-04T18:33:01;12.50;1.00
9768;DHT22;4923;52.520;13.494;2022-10-04T18:35:51;12.50;1.00
9768;DHT22;4923;52.520;13.494;2022-10-04T18:38:42;12.40;1.00
9768;DHT22;4923;52.520;13.494;2022-10-04T18:41:29;12.40;1.00
9768;DHT22;4923;52.520;13.494;2022-10-04T18:44:42;12.40;1.00
9768;DHT22;4923;52.520;13.494;2022-10-04T18:47:37;12.30;1.00
9768;DHT22;4923;52.520;13.494;2022-10-04T18:50:34;12.30;1.00
9768;DHT22;4923;52.520;13.494;2022-10-04T18:53:33;12.20;1.00
9768;DHT22;4923;52.520;13.494;2022-10-04T18:56:25;12.20;1.00
9768;DHT22;4923;52.520;13.494;2022-10-04T18:59:21;12.20;1.00
9768;DHT22;4923;52.520;13.494;2022-10-04T19:02:33;12.10;1.00
9768;DHT22;4923;52.520;13.494;2022-10-04T19:05:29;12.10;1.00
9768;DHT22;4923;52.520;13.494;2022-10-04T19:08:31;12.00;1.00
9768;DHT22;4923;52.520;13.494;2022-10-04T19:11:24;12.00;1.00
9768;DHT22;4923;52.520;13.494;2022-10-04T19:14:23;12.00;1.00
9768;DHT22;4923;52.520;13.494;2022-10-04T19:17:17;12.00;1.00
9768;DHT22;4923;52.520;13.494;2022-10-04T19:20:11;12.00;1.00
9768;DHT22;4923;52.520;13.494;2022-10-04T19:23:07;12.00;1.00
9768;DHT22;4923;52.520;13.494;2022-10-04T19:25:59;11.90;1.00
9768;DHT22;4923;52.520;13.494;2022-10-04T19:28:52;11.90;1.00
9768;DHT22;4923;52.520;13.494;2022-10-04T19:31:48;11.90;1.00
9768;DHT22;4923;52.520;13.494;2022-10-04T19:34:44;11.80;1.00
9768;DHT22;4923;52.520;13.494;2022-10-04T19:37:38;11.80;1.00
9768;DHT22;4923;52.520;13.494;2022-10-04T19:40:39;11.70;1.00
9768;DHT22;4923;52.520;13.494;2022-10-04T19:43:39;11.70;1.00
9768;DHT22;4923;52.520;13.494;2022-10-04T19:46:37;11.70;1.00
9768;DHT22;4923;52.520;13.494;2022-10-04T19:49:37;11.60;1.00
9768;DHT22;4923;52.520;13.494;2022-10-04T19:52:33;11.60;1.00
9768;DHT22;4923;52.520;13.494;2022-10-04T19:55:26;11.60;1.00
9768;DHT22;4923;52.520;13.494;2022-10-04T19:58:25;11.60;1.00
9768;DHT22;4923;52.520;13.494;2022-10-04T20:01:18;11.60;1.00
9768;DHT22;4923;52.520;13.494;2022-10-04T20:04:12;11.60;1.00
9768;DHT22;4923;52.520;13.494;2022-10-04T20:07:20;11.50;1.00
9768;DHT22;4923;52.520;13.494;2022-10-04T20:10:20;11.50;1.00
9768;DHT22;4923;52.520;13.494;2022-10-04T20:13:20;11.50;1.00
9768;DHT22;4923;52.520;13.494;2022-10-04T20:16:08;11.40;1.00
9768;DHT22;4923;52.520;13.494;2022-10-04T20:18:57;11.40;1.00
9768;DHT22;4923;52.520;13.494;2022-10-04T20:21:45;11.40;1.00
9768;DHT22;4923;52.520;13.494;2022-10-04T20:24:48;11.30;1.00
9768;DHT22;4923;52.520;13.494;2022-10-04T20:27:58;11.30;1.00
9768;DHT22;4923;52.520;13.494;2022-10-04T20:30:52;11.30;1.00
9768;DHT22;4923;52.520;13.494;2022-10-04T20:33:44;11.30;1.00
9768;DHT22;4923;52.520;13.494;2022-10-04T20:36:58;11.20;1.00
9768;DHT22;4923;52.520;13.494;2022-10-04T20:39:55;11.20;1.00
9768;DHT22;4923;52.520;13.494;2022-10-04T20:42:42;11.30;1.00
9768;DHT22;4923;52.520;13.494;2022-10-04T20:45:29;11.30;1.00
9768;DHT22;4923;52.520;13.494;2022-10-04T20:48:20;11.30;1.00
9768;DHT22;4923;52.520;13.494;2022-10-04T20:51:08;11.30;1.00
9768;DHT22;4923;52.520;13.494;2022-10-04T20:53:55;11.30;1.00
9768;DHT22;4923;52.520;13.494;2022-10-04T20:56:45;11.20;1.00